Nearby METAR Reports

 

KBAX - Bad Axe, Michigan, USA
Distance from station: ESE 22mi, 35km
Updated: Sat, 15-May-2021 10:35pm EDT
Overcast
Overcast
 Wind from calm
Wind: Calm
Temperature: 55°F , 13°C
Dew Point: 43°F , 6°C
Humidity: 63%
Barometer: 30.18 inHg , 1022 hPa
Clouds: Overcast
Visibility: 10 miles , 16 km
Cloud details: Overcast 11000 ft
2021/05/16 02:35 KBAX 160235Z AUTO 00000KT 10SM OVC110 13/06 A3018 RMK AO2 T01320055
KFNT - Flint, Michigan, USA
Distance from station: SSW 68mi, 109km
Updated: Sat, 15-May-2021 9:53pm EDT
Overcast
Overcast
 Wind from WNW
Wind: WNW 10 mph , 17 km/h
Temperature: 61°F , 16°C
Dew Point: 37°F , 3°C
Humidity: 42%
Barometer: 30.20 inHg , 1022.7 hPa
Clouds: Overcast
Visibility: 10 miles , 16 km
Cloud details: Overcast 10000 ft
2021/05/16 01:53 KFNT 160153Z 30009KT 10SM OVC100 16/03 A3020 RMK AO2 SLP225 T01610033
KMBS - Saginaw, Michigan, USA
Distance from station: SW 44mi, 70km
Updated: Sat, 15-May-2021 9:53pm EDT
Overcast
Overcast
 Wind from W
Wind: W 12 mph , 19 km/h
Temperature: 61°F , 16°C
Dew Point: 39°F , 4°C
Humidity: 45%
Barometer: 30.21 inHg , 1023 hPa
Clouds: Overcast
Visibility: 10 miles , 16 km
Cloud details: Overcast 10000 ft
2021/05/16 01:53 KMBS 160153Z 27010KT 10SM OVC100 16/04 A3021 RMK AO2 PK WND 26026/0057 SLP229 T01560039 $
 
KDTW - Detroit/Wayne, Michigan, USA
Distance from station: SSE 117mi, 188km
Updated: Sat, 15-May-2021 9:53pm EDT
Overcast
Overcast
 Wind from SSW
Wind: SSW 6 mph , 9 km/h
Temperature: 63°F , 17°C
Dew Point: 37°F , 3°C
Humidity: 39%
Barometer: 30.20 inHg , 1022.7 hPa
Clouds: Overcast
Visibility: 10 miles , 16 km
Cloud details: Partly cloudy 11000 ft
Overcast 18000 ft
2021/05/16 01:53 KDTW 160153Z 20005KT 10SM SCT110 OVC180 17/03 A3020 RMK AO2 SLP226 T01670028
KP58 - Port Hope, Michigan, USA
Distance from station: ENE 30mi, 48km
Updated: Sat, 15-May-2021 9:55pm EDT

 Wind from SSE
Wind: SSE 6 mph , 9 km/h
Temperature: 59°F , 15°C
Dew Point: 37°F , 3°C
Humidity: 45%
Barometer: 30.17 inHg , 1021.7 hPa
2021/05/16 01:55 KP58 160155Z AUTO 16005KT 15/03 A3017 RMK AO1 SLP214 T01500028
KCFS - Caro/Tuscola, Michigan, USA
Distance from station: S 31mi, 50km
Updated: Sat, 15-May-2021 10:35pm EDT
Overcast
Overcast
 Wind from W
Wind: W 9 mph , 15 km/h
Temperature: 59°F , 15°C
Dew Point: 32°F , 0°C
Humidity: 36%
Barometer: 30.21 inHg , 1023 hPa
Clouds: Overcast
Visibility: 10 miles , 16 km
Cloud details: Overcast 10000 ft
2021/05/16 02:35 KCFS 160235Z AUTO 28008KT 10SM OVC100 15/00 A3021 RMK AO2 T01540001
 
KPHN - Port Huron, Michigan, USA
Distance from station: SSE 81mi, 131km
Updated: Sat, 15-May-2021 10:35pm EDT
Clear
Clear
 Wind from calm
Wind: Calm
Temperature: 59°F , 15°C
Dew Point: 28°F , -2°C
Humidity: 31%
Barometer: 30.19 inHg , 1022.4 hPa
Clouds: Clear
Visibility: 10 miles , 16 km
2021/05/16 02:35 KPHN 160235Z AUTO 00000KT 10SM CLR 15/M02 A3019 RMK AO
KPTK - Pontiac, Michigan, USA
Distance from station: S 86mi, 138km
Updated: Sat, 15-May-2021 9:53pm EDT
Overcast
Overcast
 Wind from WSW
Wind: WSW 3 mph , 6 km/h
Temperature: 64°F , 18°C
Dew Point: 34°F , 1°C
Humidity: 32%
Barometer: 30.18 inHg , 1022 hPa
Clouds: Overcast
Visibility: 10 miles , 16 km
Cloud details: Overcast 8500 ft
2021/05/16 01:53 KPTK 160153Z 24003KT 10SM OVC085 18/01 A3018 RMK AO2 SLP217 T01780006
KMTC - Selfridge Angb, Michigan, USA
Distance from station: SSE 94mi, 151km
Updated: Sat, 15-May-2021 9:56pm EDT
Overcast
Overcast
 Wind from S
Wind: S 8 mph , 13 km/h
Temperature: 55°F , 13°C
Dew Point: 46°F , 8°C
Humidity: 72%
Barometer: 30.17 inHg , 1021.7 hPa
Clouds: Overcast
Visibility: 10 miles , 16 km
Cloud details: Mostly cloudy 11000 ft
Overcast 17000 ft
2021/05/16 01:56 KMTC 160156Z 18007KT 10SM BKN110 OVC170 13/08 A3017 RMK AO2A SLP222 T01340080 $